sensor_id;sensor_type;location;lat;lon;timestamp;temperature;humidity
19168;DHT22;9716;53.114;18.040;2023-08-17T00:00:58;21.30;99.90
19168;DHT22;9716;53.114;18.040;2023-08-17T00:03:36;21.20;99.90
19168;DHT22;9716;53.114;18.040;2023-08-17T00:06:05;21.10;99.90
19168;DHT22;9716;53.114;18.040;2023-08-17T00:08:33;21.10;99.90
19168;DHT22;9716;53.114;18.040;2023-08-17T00:11:01;21.00;99.90
19168;DHT22;9716;53.114;18.040;2023-08-17T00:13:30;21.00;99.90
19168;DHT22;9716;53.114;18.040;2023-08-17T00:16:00;20.90;99.90
19168;DHT22;9716;53.114;18.040;2023-08-17T00:18:29;20.90;99.90
19168;DHT22;9716;53.114;18.040;2023-08-17T00:20:58;20.80;99.90
19168;DHT22;9716;53.114;18.040;2023-08-17T00:23:26;20.80;99.90
19168;DHT22;9716;53.114;18.040;2023-08-17T00:25:55;20.80;99.90
19168;DHT22;9716;53.114;18.040;2023-08-17T00:28:23;20.80;99.90
19168;DHT22;9716;53.114;18.040;2023-08-17T00:30:52;20.80;99.90
19168;DHT22;9716;53.114;18.040;2023-08-17T00:33:22;20.70;99.90
19168;DHT22;9716;53.114;18.040;2023-08-17T00:35:50;20.70;99.90
19168;DHT22;9716;53.114;18.040;2023-08-17T00:38:19;20.70;99.90
19168;DHT22;9716;53.114;18.040;2023-08-17T00:40:48;20.70;99.90
19168;DHT22;9716;53.114;18.040;2023-08-17T00:43:16;20.70;99.90
19168;DHT22;9716;53.114;18.040;2023-08-17T00:45:47;20.70;99.90
19168;DHT22;9716;53.114;18.040;2023-08-17T00:48:15;20.70;99.90
19168;DHT22;9716;53.114;18.040;2023-08-17T00:50:47;20.70;99.90
19168;DHT22;9716;53.114;18.040;2023-08-17T00:53:17;20.60;99.90
19168;DHT22;9716;53.114;18.040;2023-08-17T00:55:46;20.60;99.90
19168;DHT22;9716;53.114;18.040;2023-08-17T00:58:15;20.60;99.90
19168;DHT22;9716;53.114;18.040;2023-08-17T01:00:44;20.60;99.90
19168;DHT22;9716;53.114;18.040;2023-08-17T01:03:12;20.60;99.90
19168;DHT22;9716;53.114;18.040;2023-08-17T01:05:41;20.60;99.90
19168;DHT22;9716;53.114;18.040;2023-08-17T01:08:11;20.60;99.90
19168;DHT22;9716;53.114;18.040;2023-08-17T01:10:44;20.60;99.90
19168;DHT22;9716;53.114;18.040;2023-08-17T01:13:21;20.60;99.90
19168;DHT22;9716;53.114;18.040;2023-08-17T01:15:56;20.60;99.90
19168;DHT22;9716;53.114;18.040;2023-08-17T01:18:29;20.60;99.90
19168;DHT22;9716;53.114;18.040;2023-08-17T01:21:00;20.60;99.90
19168;DHT22;9716;53.114;18.040;2023-08-17T01:23:31;20.60;99.90
19168;DHT22;9716;53.114;18.040;2023-08-17T01:26:00;20.60;99.90
19168;DHT22;9716;53.114;18.040;2023-08-17T01:28:29;20.60;99.90
19168;DHT22;9716;53.114;18.040;2023-08-17T01:31:02;20.60;99.90
19168;DHT22;9716;53.114;18.040;2023-08-17T01:33:37;20.70;99.90
19168;DHT22;9716;53.114;18.040;2023-08-17T01:36:13;20.70;99.90
19168;DHT22;9716;53.114;18.040;2023-08-17T01:38:48;20.60;99.90
19168;DHT22;9716;53.114;18.040;2023-08-17T01:41:20;20.60;99.90
19168;DHT22;9716;53.114;18.040;2023-08-17T01:43:50;20.60;99.90
19168;DHT22;9716;53.114;18.040;2023-08-17T01:46:19;20.60;99.90
19168;DHT22;9716;53.114;18.040;2023-08-17T01:48:48;20.60;99.90
19168;DHT22;9716;53.114;18.040;2023-08-17T01:51:18;20.60;99.90
19168;DHT22;9716;53.114;18.040;2023-08-17T01:53:48;20.70;99.90
19168;DHT22;9716;53.114;18.040;2023-08-17T01:56:17;20.70;99.90
19168;DHT22;9716;53.114;18.040;2023-08-17T01:58:48;20.60;99.90
19168;DHT22;9716;53.114;18.040;2023-08-17T02:01:16;20.60;99.90
19168;DHT22;9716;53.114;18.040;2023-08-17T02:03:45;20.60;99.90
19168;DHT22;9716;53.114;18.040;2023-08-17T02:06:13;20.60;99.90
19168;DHT22;9716;53.114;18.040;2023-08-17T02:08:41;20.50;99.90
19168;DHT22;9716;53.114;18.040;2023-08-17T02:11:11;20.60;99.90
19168;DHT22;9716;53.114;18.040;2023-08-17T02:13:40;20.60;99.90
19168;DHT22;9716;53.114;18.040;2023-08-17T02:16:08;20.50;99.90
19168;DHT22;9716;53.114;18.040;2023-08-17T02:18:37;20.60;99.90
19168;DHT22;9716;53.114;18.040;2023-08-17T02:21:05;20.60;99.90
19168;DHT22;9716;53.114;18.040;2023-08-17T02:23:34;20.60;99.90
19168;DHT22;9716;53.114;18.040;2023-08-17T02:26:02;20.60;99.90
19168;DHT22;9716;53.114;18.040;2023-08-17T02:28:32;20.60;99.90
19168;DHT22;9716;53.114;18.040;2023-08-17T02:31:00;20.60;99.90
19168;DHT22;9716;53.114;18.040;2023-08-17T02:33:29;20.60;99.90
19168;DHT22;9716;53.114;18.040;2023-08-17T02:35:57;20.60;99.90
19168;DHT22;9716;53.114;18.040;2023-08-17T02:38:26;20.60;99.90
19168;DHT22;9716;53.114;18.040;2023-08-17T02:40:54;20.60;99.90
19168;DHT22;9716;53.114;18.040;2023-08-17T02:43:23;20.60;99.90
19168;DHT22;9716;53.114;18.040;2023-08-17T02:45:53;20.60;99.90
19168;DHT22;9716;53.114;18.040;2023-08-17T02:48:21;20.60;99.90
19168;DHT22;9716;53.114;18.040;2023-08-17T02:50:50;20.60;99.90
19168;DHT22;9716;53.114;18.040;2023-08-17T02:53:18;20.60;99.90
19168;DHT22;9716;53.114;18.040;2023-08-17T02:55:46;20.60;99.90
19168;DHT22;9716;53.114;18.040;2023-08-17T02:58:15;20.60;99.90
19168;DHT22;9716;53.114;18.040;2023-08-17T03:00:43;20.60;99.90
19168;DHT22;9716;53.114;18.040;2023-08-17T03:03:13;20.60;99.90
19168;DHT22;9716;53.114;18.040;2023-08-17T03:05:42;20.60;99.90
19168;DHT22;9716;53.114;18.040;2023-08-17T03:08:10;20.60;99.90
19168;DHT22;9716;53.114;18.040;2023-08-17T03:10:39;20.60;99.90
19168;DHT22;9716;53.114;18.040;2023-08-17T03:13:07;20.60;99.90
19168;DHT22;9716;53.114;18.040;2023-08-17T03:15:35;20.50;99.90
19168;DHT22;9716;53.114;18.040;2023-08-17T03:18:07;20.50;99.90
19168;DHT22;9716;53.114;18.040;2023-08-17T03:20:37;20.50;99.90
19168;DHT22;9716;53.114;18.040;2023-08-17T03:23:05;20.50;99.90
19168;DHT22;9716;53.114;18.040;2023-08-17T03:25:34;20.50;99.90
19168;DHT22;9716;53.114;18.040;2023-08-17T03:28:03;20.50;99.90
19168;DHT22;9716;53.114;18.040;2023-08-17T03:30:32;20.40;99.90
19168;DHT22;9716;53.114;18.040;2023-08-17T03:33:00;20.40;99.90
19168;DHT22;9716;53.114;18.040;2023-08-17T03:35:29;20.40;99.90
19168;DHT22;9716;53.114;18.040;2023-08-17T03:37:58;20.40;99.90
19168;DHT22;9716;53.114;18.040;2023-08-17T03:40:27;20.50;99.90
19168;DHT22;9716;53.114;18.040;2023-08-17T03:42:55;20.40;99.90
19168;DHT22;9716;53.114;18.040;2023-08-17T03:45:24;20.40;99.90
19168;DHT22;9716;53.114;18.040;2023-08-17T03:47:52;20.40;99.90
19168;DHT22;9716;53.114;18.040;2023-08-17T03:50:21;20.40;99.90
19168;DHT22;9716;53.114;18.040;2023-08-17T03:52:49;20.40;99.90
19168;DHT22;9716;53.114;18.040;2023-08-17T03:55:19;20.40;99.90
19168;DHT22;9716;53.114;18.040;2023-08-17T03:57:48;20.40;99.90
19168;DHT22;9716;53.114;18.040;2023-08-17T04:00:17;20.40;99.90
19168;DHT22;9716;53.114;18.040;2023-08-17T04:02:45;20.40;99.90
19168;DHT22;9716;53.114;18.040;2023-08-17T04:05:14;20.50;99.90
19168;DHT22;9716;53.114;18.040;2023-08-17T04:07:43;20.50;99.90
19168;DHT22;9716;53.114;18.040;2023-08-17T04:10:11;20.50;99.90
19168;DHT22;9716;53.114;18.040;2023-08-17T04:12:41;20.50;99.90
19168;DHT22;9716;53.114;18.040;2023-08-17T04:15:10;20.40;99.90
19168;DHT22;9716;53.114;18.040;2023-08-17T04:17:38;20.40;99.90
19168;DHT22;9716;53.114;18.040;2023-08-17T04:20:06;20.40;99.90
19168;DHT22;9716;53.114;18.040;2023-08-17T04:22:35;20.40;99.90
19168;DHT22;9716;53.114;18.040;2023-08-17T04:25:04;20.30;99.90
19168;DHT22;9716;53.114;18.040;2023-08-17T04:27:32;20.30;99.90
19168;DHT22;9716;53.114;18.040;2023-08-17T04:30:03;20.20;99.90
19168;DHT22;9716;53.114;18.040;2023-08-17T04:32:32;20.30;99.90
19168;DHT22;9716;53.114;18.040;2023-08-17T04:35:01;20.30;99.90
19168;DHT22;9716;53.114;18.040;2023-08-17T04:37:29;20.30;99.90
19168;DHT22;9716;53.114;18.040;2023-08-17T04:39:58;20.30;99.90
19168;DHT22;9716;53.114;18.040;2023-08-17T04:42:26;20.30;99.90
19168;DHT22;9716;53.114;18.040;2023-08-17T04:44:54;20.20;99.90
19168;DHT22;9716;53.114;18.040;2023-08-17T04:47:24;20.20;99.90
19168;DHT22;9716;53.114;18.040;2023-08-17T04:49:53;20.20;99.90
19168;DHT22;9716;53.114;18.040;2023-08-17T04:52:22;20.20;99.90
19168;DHT22;9716;53.114;18.040;2023-08-17T04:54:50;20.20;99.90
19168;DHT22;9716;53.114;18.040;2023-08-17T04:57:19;20.20;99.90
19168;DHT22;9716;53.114;18.040;2023-08-17T04:59:48;20.30;99.90
19168;DHT22;9716;53.114;18.040;2023-08-17T05:02:16;20.30;99.90
19168;DHT22;9716;53.114;18.040;2023-08-17T05:04:46;20.30;99.90
19168;DHT22;9716;53.114;18.040;2023-08-17T05:07:15;20.30;99.90
19168;DHT22;9716;53.114;18.040;2023-08-17T05:09:43;20.30;99.90
19168;DHT22;9716;53.114;18.040;2023-08-17T05:12:12;20.30;99.90
19168;DHT22;9716;53.114;18.040;2023-08-17T05:14:41;20.30;99.90
19168;DHT22;9716;53.114;18.040;2023-08-17T05:17:09;20.30;99.90
19168;DHT22;9716;53.114;18.040;2023-08-17T05:19:37;20.30;99.90
19168;DHT22;9716;53.114;18.040;2023-08-17T05:22:11;20.40;99.90
19168;DHT22;9716;53.114;18.040;2023-08-17T05:24:40;20.40;99.90
19168;DHT22;9716;53.114;18.040;2023-08-17T05:27:09;20.40;99.90
19168;DHT22;9716;53.114;18.040;2023-08-17T05:29:38;20.40;99.90
19168;DHT22;9716;53.114;18.040;2023-08-17T05:32:06;20.50;99.90
19168;DHT22;9716;53.114;18.040;2023-08-17T05:34:35;20.50;99.90
19168;DHT22;9716;53.114;18.040;2023-08-17T05:37:03;20.50;99.90
19168;DHT22;9716;53.114;18.040;2023-08-17T05:39:35;20.60;99.90
19168;DHT22;9716;53.114;18.040;2023-08-17T05:42:04;20.60;99.90
19168;DHT22;9716;53.114;18.040;2023-08-17T05:44:33;20.60;99.90
19168;DHT22;9716;53.114;18.040;2023-08-17T05:47:01;20.70;99.90
19168;DHT22;9716;53.114;18.040;2023-08-17T05:49:30;20.70;99.90
19168;DHT22;9716;53.114;18.040;2023-08-17T05:51:58;20.70;99.90
19168;DHT22;9716;53.114;18.040;2023-08-17T05:54:26;20.70;99.90
19168;DHT22;9716;53.114;18.040;2023-08-17T05:56:56;20.70;99.90
19168;DHT22;9716;53.114;18.040;2023-08-17T05:59:25;20.70;99.90
19168;DHT22;9716;53.114;18.040;2023-08-17T06:01:53;20.80;99.90
19168;DHT22;9716;53.114;18.040;2023-08-17T06:04:22;20.80;99.90
19168;DHT22;9716;53.114;18.040;2023-08-17T06:06:50;20.80;99.90
19168;DHT22;9716;53.114;18.040;2023-08-17T06:09:19;20.90;99.90
19168;DHT22;9716;53.114;18.040;2023-08-17T06:11:47;20.90;99.90
19168;DHT22;9716;53.114;18.040;2023-08-17T06:14:17;21.00;99.90
19168;DHT22;9716;53.114;18.040;2023-08-17T06:16:45;21.10;99.90
19168;DHT22;9716;53.114;18.040;2023-08-17T06:19:14;21.10;99.90
19168;DHT22;9716;53.114;18.040;2023-08-17T06:21:42;21.30;99.90
19168;DHT22;9716;53.114;18.040;2023-08-17T06:24:13;21.50;99.90
19168;DHT22;9716;53.114;18.040;2023-08-17T06:26:43;21.70;99.90
19168;DHT22;9716;53.114;18.040;2023-08-17T06:29:13;21.80;99.90
19168;DHT22;9716;53.114;18.040;2023-08-17T06:31:42;22.00;99.90
19168;DHT22;9716;53.114;18.040;2023-08-17T06:34:11;22.10;99.90
19168;DHT22;9716;53.114;18.040;2023-08-17T06:36:39;22.30;99.90
19168;DHT22;9716;53.114;18.040;2023-08-17T06:39:08;22.40;99.90
19168;DHT22;9716;53.114;18.040;2023-08-17T06:41:36;22.40;99.90
19168;DHT22;9716;53.114;18.040;2023-08-17T06:44:05;22.50;99.90
19168;DHT22;9716;53.114;18.040;2023-08-17T06:46:34;22.50;99.90
19168;DHT22;9716;53.114;18.040;2023-08-17T06:49:04;22.60;99.90
19168;DHT22;9716;53.114;18.040;2023-08-17T06:51:32;22.70;99.90
19168;DHT22;9716;53.114;18.040;2023-08-17T06:54:01;22.70;99.90
19168;DHT22;9716;53.114;18.040;2023-08-17T06:56:30;22.80;99.90
19168;DHT22;9716;53.114;18.040;2023-08-17T06:58:58;22.90;99.90
19168;DHT22;9716;53.114;18.040;2023-08-17T07:01:27;23.00;99.90
19168;DHT22;9716;53.114;18.040;2023-08-17T07:03:55;23.00;99.90
19168;DHT22;9716;53.114;18.040;2023-08-17T07:06:25;23.10;99.90
19168;DHT22;9716;53.114;18.040;2023-08-17T07:08:54;23.10;99.90
19168;DHT22;9716;53.114;18.040;2023-08-17T07:11:22;23.20;99.90
19168;DHT22;9716;53.114;18.040;2023-08-17T07:13:51;23.20;99.90
19168;DHT22;9716;53.114;18.040;2023-08-17T07:16:19;23.30;99.90
19168;DHT22;9716;53.114;18.040;2023-08-17T07:18:48;23.30;99.90
19168;DHT22;9716;53.114;18.040;2023-08-17T07:21:16;23.50;99.90
19168;DHT22;9716;53.114;18.040;2023-08-17T07:23:46;23.50;99.90
19168;DHT22;9716;53.114;18.040;2023-08-17T07:26:15;23.40;99.90
19168;DHT22;9716;53.114;18.040;2023-08-17T07:28:46;23.40;99.90
19168;DHT22;9716;53.114;18.040;2023-08-17T07:31:14;23.40;99.90
19168;DHT22;9716;53.114;18.040;2023-08-17T07:33:43;23.30;99.90
19168;DHT22;9716;53.114;18.040;2023-08-17T07:36:12;23.20;99.90
19168;DHT22;9716;53.114;18.040;2023-08-17T07:38:41;23.20;99.90
19168;DHT22;9716;53.114;18.040;2023-08-17T07:41:10;23.10;99.90
19168;DHT22;9716;53.114;18.040;2023-08-17T07:43:39;23.10;99.90
19168;DHT22;9716;53.114;18.040;2023-08-17T07:46:07;23.10;99.90
19168;DHT22;9716;53.114;18.040;2023-08-17T07:48:36;23.10;99.90
19168;DHT22;9716;53.114;18.040;2023-08-17T07:51:04;23.10;99.90
19168;DHT22;9716;53.114;18.040;2023-08-17T07:53:32;23.00;99.90
19168;DHT22;9716;53.114;18.040;2023-08-17T07:56:01;22.90;99.90
19168;DHT22;9716;53.114;18.040;2023-08-17T07:58:32;23.00;99.90
19168;DHT22;9716;53.114;18.040;2023-08-17T08:01:00;23.10;99.90
19168;DHT22;9716;53.114;18.040;2023-08-17T08:03:31;23.20;99.90
19168;DHT22;9716;53.114;18.040;2023-08-17T08:06:00;23.30;99.90
19168;DHT22;9716;53.114;18.040;2023-08-17T08:08:28;23.50;99.90
19168;DHT22;9716;53.114;18.040;2023-08-17T08:10:59;23.60;99.90
19168;DHT22;9716;53.114;18.040;2023-08-17T08:13:27;23.70;99.90
19168;DHT22;9716;53.114;18.040;2023-08-17T08:15:58;23.90;99.90
19168;DHT22;9716;53.114;18.040;2023-08-17T08:18:27;24.10;99.90
19168;DHT22;9716;53.114;18.040;2023-08-17T08:20:55;24.40;99.90
19168;DHT22;9716;53.114;18.040;2023-08-17T08:23:23;24.80;99.90
19168;DHT22;9716;53.114;18.040;2023-08-17T08:25:53;25.50;99.90
19168;DHT22;9716;53.114;18.040;2023-08-17T08:28:21;26.10;99.90
19168;DHT22;9716;53.114;18.040;2023-08-17T08:30:50;26.60;99.90
19168;DHT22;9716;53.114;18.040;2023-08-17T08:33:20;27.00;99.90
19168;DHT22;9716;53.114;18.040;2023-08-17T08:35:48;27.20;99.90
19168;DHT22;9716;53.114;18.040;2023-08-17T08:38:19;27.30;99.90
19168;DHT22;9716;53.114;18.040;2023-08-17T08:40:48;27.20;99.90
19168;DHT22;9716;53.114;18.040;2023-08-17T08:43:20;26.90;99.90
19168;DHT22;9716;53.114;18.040;2023-08-17T08:45:49;26.70;99.90
19168;DHT22;9716;53.114;18.040;2023-08-17T08:48:22;26.50;99.90
19168;DHT22;9716;53.114;18.040;2023-08-17T08:50:55;26.30;99.90
19168;DHT22;9716;53.114;18.040;2023-08-17T08:53:31;26.10;99.90
19168;DHT22;9716;53.114;18.040;2023-08-17T08:56:03;25.90;99.90
19168;DHT22;9716;53.114;18.040;2023-08-17T08:58:33;25.90;99.90
19168;DHT22;9716;53.114;18.040;2023-08-17T09:01:07;25.90;99.90
19168;DHT22;9716;53.114;18.040;2023-08-17T09:03:41;25.90;99.90
19168;DHT22;9716;53.114;18.040;2023-08-17T09:06:11;26.00;99.90
19168;DHT22;9716;53.114;18.040;2023-08-17T09:08:40;26.20;99.90
19168;DHT22;9716;53.114;18.040;2023-08-17T09:11:10;26.30;99.90
19168;DHT22;9716;53.114;18.040;2023-08-17T09:13:40;26.40;99.90
19168;DHT22;9716;53.114;18.040;2023-08-17T09:16:08;26.40;99.70
19168;DHT22;9716;53.114;18.040;2023-08-17T09:18:42;26.40;99.30
19168;DHT22;9716;53.114;18.040;2023-08-17T09:21:20;26.40;99.30
19168;DHT22;9716;53.114;18.040;2023-08-17T09:23:52;26.50;98.90
19168;DHT22;9716;53.114;18.040;2023-08-17T09:26:24;26.70;98.60
19168;DHT22;9716;53.114;18.040;2023-08-17T09:28:53;26.80;98.40
19168;DHT22;9716;53.114;18.040;2023-08-17T09:31:24;26.70;98.20
19168;DHT22;9716;53.114;18.040;2023-08-17T09:33:54;26.70;98.10
19168;DHT22;9716;53.114;18.040;2023-08-17T09:36:23;26.60;98.00
19168;DHT22;9716;53.114;18.040;2023-08-17T09:38:52;26.50;98.10
19168;DHT22;9716;53.114;18.040;2023-08-17T09:41:20;26.30;98.20
19168;DHT22;9716;53.114;18.040;2023-08-17T09:43:55;26.20;98.40
19168;DHT22;9716;53.114;18.040;2023-08-17T09:46:23;26.00;98.60
19168;DHT22;9716;53.114;18.040;2023-08-17T09:48:55;25.90;98.90
19168;DHT22;9716;53.114;18.040;2023-08-17T09:51:24;25.70;99.10
19168;DHT22;9716;53.114;18.040;2023-08-17T09:53:53;25.50;99.40
19168;DHT22;9716;53.114;18.040;2023-08-17T09:56:27;25.30;99.70
19168;DHT22;9716;53.114;18.040;2023-08-17T09:58:55;25.10;99.90
19168;DHT22;9716;53.114;18.040;2023-08-17T10:01:25;25.00;99.90
19168;DHT22;9716;53.114;18.040;2023-08-17T10:03:58;25.00;99.90
19168;DHT22;9716;53.114;18.040;2023-08-17T10:06:29;25.00;99.90
19168;DHT22;9716;53.114;18.040;2023-08-17T10:08:59;24.90;99.90
19168;DHT22;9716;53.114;18.040;2023-08-17T10:11:31;25.00;99.90
19168;DHT22;9716;53.114;18.040;2023-08-17T10:14:02;25.00;99.90
19168;DHT22;9716;53.114;18.040;2023-08-17T10:16:43;25.10;99.90
19168;DHT22;9716;53.114;18.040;2023-08-17T10:19:18;25.30;99.90
19168;DHT22;9716;53.114;18.040;2023-08-17T10:21:54;25.50;99.90
19168;DHT22;9716;53.114;18.040;2023-08-17T10:24:25;25.70;99.90
19168;DHT22;9716;53.114;18.040;2023-08-17T10:26:54;25.90;99.90
19168;DHT22;9716;53.114;18.040;2023-08-17T10:29:24;26.20;99.90
19168;DHT22;9716;53.114;18.040;2023-08-17T10:31:52;26.40;99.90
19168;DHT22;9716;53.114;18.040;2023-08-17T10:34:23;26.60;99.50
19168;DHT22;9716;53.114;18.040;2023-08-17T10:36:52;26.60;99.40
19168;DHT22;9716;53.114;18.040;2023-08-17T10:39:29;26.70;99.10
19168;DHT22;9716;53.114;18.040;2023-08-17T10:41:58;26.70;99.00
19168;DHT22;9716;53.114;18.040;2023-08-17T10:44:39;26.60;99.00
19168;DHT22;9716;53.114;18.040;2023-08-17T10:47:22;26.60;99.00
19168;DHT22;9716;53.114;18.040;2023-08-17T10:49:57;26.60;99.10
19168;DHT22;9716;53.114;18.040;2023-08-17T10:52:29;26.70;99.10
19168;DHT22;9716;53.114;18.040;2023-08-17T10:55:00;26.90;99.00
19168;DHT22;9716;53.114;18.040;2023-08-17T10:57:30;27.00;98.90
19168;DHT22;9716;53.114;18.040;2023-08-17T11:00:16;27.20;98.60
19168;DHT22;9716;53.114;18.040;2023-08-17T11:03:09;27.20;98.30
19168;DHT22;9716;53.114;18.040;2023-08-17T11:05:41;27.30;98.60
19168;DHT22;9716;53.114;18.040;2023-08-17T11:08:11;27.30;98.10
19168;DHT22;9716;53.114;18.040;2023-08-17T11:10:56;27.30;98.10
19168;DHT22;9716;53.114;18.040;2023-08-17T11:13:28;27.40;98.10
19168;DHT22;9716;53.114;18.040;2023-08-17T11:15:59;27.40;98.00
19168;DHT22;9716;53.114;18.040;2023-08-17T11:18:32;27.50;97.90
19168;DHT22;9716;53.114;18.040;2023-08-17T11:21:04;27.60;97.80
19168;DHT22;9716;53.114;18.040;2023-08-17T11:23:34;27.60;97.60
19168;DHT22;9716;53.114;18.040;2023-08-17T11:26:04;27.60;97.60
19168;DHT22;9716;53.114;18.040;2023-08-17T11:28:34;27.70;97.70
19168;DHT22;9716;53.114;18.040;2023-08-17T11:31:09;27.70;97.50
19168;DHT22;9716;53.114;18.040;2023-08-17T11:33:38;27.70;97.40
19168;DHT22;9716;53.114;18.040;2023-08-17T11:36:09;27.70;97.40
19168;DHT22;9716;53.114;18.040;2023-08-17T11:38:40;27.60;97.50
19168;DHT22;9716;53.114;18.040;2023-08-17T11:41:09;27.60;97.40
19168;DHT22;9716;53.114;18.040;2023-08-17T11:43:45;27.60;97.40
19168;DHT22;9716;53.114;18.040;2023-08-17T11:46:15;27.50;97.60
19168;DHT22;9716;53.114;18.040;2023-08-17T11:48:44;27.50;97.70
19168;DHT22;9716;53.114;18.040;2023-08-17T11:51:14;27.50;97.80
19168;DHT22;9716;53.114;18.040;2023-08-17T11:53:42;27.60;97.90
19168;DHT22;9716;53.114;18.040;2023-08-17T11:56:16;27.70;97.90
19168;DHT22;9716;53.114;18.040;2023-08-17T11:58:46;27.80;97.80
19168;DHT22;9716;53.114;18.040;2023-08-17T12:01:15;27.80;97.70
19168;DHT22;9716;53.114;18.040;2023-08-17T12:03:44;27.90;97.70
19168;DHT22;9716;53.114;18.040;2023-08-17T12:06:16;27.90;97.60
19168;DHT22;9716;53.114;18.040;2023-08-17T12:08:45;28.00;97.60
19168;DHT22;9716;53.114;18.040;2023-08-17T12:11:15;28.00;97.50
19168;DHT22;9716;53.114;18.040;2023-08-17T12:13:49;28.00;97.60
19168;DHT22;9716;53.114;18.040;2023-08-17T12:16:19;28.00;97.60
19168;DHT22;9716;53.114;18.040;2023-08-17T12:18:48;28.00;97.50
19168;DHT22;9716;53.114;18.040;2023-08-17T12:21:21;28.00;97.50
19168;DHT22;9716;53.114;18.040;2023-08-17T12:23:50;28.10;97.30
19168;DHT22;9716;53.114;18.040;2023-08-17T12:26:18;28.10;97.30
19168;DHT22;9716;53.114;18.040;2023-08-17T12:28:47;28.10;97.20
19168;DHT22;9716;53.114;18.040;2023-08-17T12:31:21;28.10;97.20
19168;DHT22;9716;53.114;18.040;2023-08-17T12:33:51;28.10;97.20
19168;DHT22;9716;53.114;18.040;2023-08-17T12:36:21;28.10;97.20
19168;DHT22;9716;53.114;18.040;2023-08-17T12:38:50;28.10;97.20
19168;DHT22;9716;53.114;18.040;2023-08-17T12:41:19;28.10;97.20
19168;DHT22;9716;53.114;18.040;2023-08-17T12:43:49;28.10;97.10
19168;DHT22;9716;53.114;18.040;2023-08-17T12:46:17;28.10;97.20
19168;DHT22;9716;53.114;18.040;2023-08-17T12:48:46;28.00;97.20
19168;DHT22;9716;53.114;18.040;2023-08-17T12:51:14;28.00;97.20
19168;DHT22;9716;53.114;18.040;2023-08-17T12:53:44;28.00;97.20
19168;DHT22;9716;53.114;18.040;2023-08-17T12:56:16;28.10;97.30
19168;DHT22;9716;53.114;18.040;2023-08-17T12:58:45;28.10;97.30
19168;DHT22;9716;53.114;18.040;2023-08-17T13:01:13;28.10;97.30
19168;DHT22;9716;53.114;18.040;2023-08-17T13:03:42;28.10;97.30
19168;DHT22;9716;53.114;18.040;2023-08-17T13:06:10;28.00;97.30
19168;DHT22;9716;53.114;18.040;2023-08-17T13:08:38;28.10;97.30
19168;DHT22;9716;53.114;18.040;2023-08-17T13:11:08;28.10;97.30
19168;DHT22;9716;53.114;18.040;2023-08-17T13:13:37;28.10;97.30
19168;DHT22;9716;53.114;18.040;2023-08-17T13:16:05;28.10;97.30
19168;DHT22;9716;53.114;18.040;2023-08-17T13:18:34;28.20;97.30
19168;DHT22;9716;53.114;18.040;2023-08-17T13:21:02;28.20;97.30
19168;DHT22;9716;53.114;18.040;2023-08-17T13:23:31;28.20;97.30
19168;DHT22;9716;53.114;18.040;2023-08-17T13:25:59;28.20;97.20
19168;DHT22;9716;53.114;18.040;2023-08-17T13:28:32;28.20;97.20
19168;DHT22;9716;53.114;18.040;2023-08-17T13:31:00;28.20;97.20
19168;DHT22;9716;53.114;18.040;2023-08-17T13:33:49;28.20;97.20
19168;DHT22;9716;53.114;18.040;2023-08-17T13:36:18;28.20;97.20
19168;DHT22;9716;53.114;18.040;2023-08-17T13:38:46;28.30;97.20
19168;DHT22;9716;53.114;18.040;2023-08-17T13:41:15;28.30;97.20
19168;DHT22;9716;53.114;18.040;2023-08-17T13:43:44;28.30;97.20
19168;DHT22;9716;53.114;18.040;2023-08-17T13:46:13;28.20;97.30
19168;DHT22;9716;53.114;18.040;2023-08-17T13:48:41;28.10;97.20
19168;DHT22;9716;53.114;18.040;2023-08-17T13:51:10;28.10;97.40
19168;DHT22;9716;53.114;18.040;2023-08-17T13:53:39;28.10;97.40
19168;DHT22;9716;53.114;18.040;2023-08-17T13:56:08;28.10;97.40
19168;DHT22;9716;53.114;18.040;2023-08-17T13:58:36;28.00;97.40
19168;DHT22;9716;53.114;18.040;2023-08-17T14:01:06;28.00;97.40
19168;DHT22;9716;53.114;18.040;2023-08-17T14:03:35;28.00;97.50
19168;DHT22;9716;53.114;18.040;2023-08-17T14:06:08;28.00;97.50
19168;DHT22;9716;53.114;18.040;2023-08-17T14:08:36;28.00;97.50
19168;DHT22;9716;53.114;18.040;2023-08-17T14:11:05;28.00;97.50
19168;DHT22;9716;53.114;18.040;2023-08-17T14:13:34;28.00;97.60
19168;DHT22;9716;53.114;18.040;2023-08-17T14:16:03;28.00;97.60
19168;DHT22;9716;53.114;18.040;2023-08-17T14:18:33;28.00;97.60
19168;DHT22;9716;53.114;18.040;2023-08-17T14:21:02;28.00;97.70
19168;DHT22;9716;53.114;18.040;2023-08-17T14:23:30;28.00;97.70
19168;DHT22;9716;53.114;18.040;2023-08-17T14:25:59;28.00;97.80
19168;DHT22;9716;53.114;18.040;2023-08-17T14:28:27;28.00;97.80
19168;DHT22;9716;53.114;18.040;2023-08-17T14:30:56;28.00;97.80
19168;DHT22;9716;53.114;18.040;2023-08-17T14:33:24;28.00;97.80
19168;DHT22;9716;53.114;18.040;2023-08-17T14:35:54;28.00;97.70
19168;DHT22;9716;53.114;18.040;2023-08-17T14:38:23;28.00;97.70
19168;DHT22;9716;53.114;18.040;2023-08-17T14:40:58;28.00;97.70
19168;DHT22;9716;53.114;18.040;2023-08-17T14:43:27;28.00;97.70
19168;DHT22;9716;53.114;18.040;2023-08-17T14:45:55;27.90;97.70
19168;DHT22;9716;53.114;18.040;2023-08-17T14:48:24;27.90;97.80
19168;DHT22;9716;53.114;18.040;2023-08-17T14:50:54;27.90;97.80
19168;DHT22;9716;53.114;18.040;2023-08-17T14:53:22;27.90;97.70
19168;DHT22;9716;53.114;18.040;2023-08-17T14:55:51;27.90;97.70
19168;DHT22;9716;53.114;18.040;2023-08-17T14:58:20;27.90;97.80
19168;DHT22;9716;53.114;18.040;2023-08-17T15:00:49;27.90;97.80
19168;DHT22;9716;53.114;18.040;2023-08-17T15:03:17;27.90;97.90
19168;DHT22;9716;53.114;18.040;2023-08-17T15:05:51;27.90;97.80
19168;DHT22;9716;53.114;18.040;2023-08-17T15:08:20;27.90;97.80
19168;DHT22;9716;53.114;18.040;2023-08-17T15:10:49;27.90;97.80
19168;DHT22;9716;53.114;18.040;2023-08-17T15:13:18;27.90;97.80
19168;DHT22;9716;53.114;18.040;2023-08-17T15:15:46;27.90;97.80
19168;DHT22;9716;53.114;18.040;2023-08-17T15:18:15;27.80;97.80
19168;DHT22;9716;53.114;18.040;2023-08-17T15:20:44;27.80;97.80
19168;DHT22;9716;53.114;18.040;2023-08-17T15:23:12;27.90;97.80
19168;DHT22;9716;53.114;18.040;2023-08-17T15:25:46;27.90;97.80
19168;DHT22;9716;53.114;18.040;2023-08-17T15:28:14;27.90;97.80
19168;DHT22;9716;53.114;18.040;2023-08-17T15:30:43;27.90;97.80
19168;DHT22;9716;53.114;18.040;2023-08-17T15:33:11;27.80;97.70
19168;DHT22;9716;53.114;18.040;2023-08-17T15:35:40;27.80;97.80
19168;DHT22;9716;53.114;18.040;2023-08-17T15:38:08;27.80;97.90
19168;DHT22;9716;53.114;18.040;2023-08-17T15:40:37;27.80;98.30
19168;DHT22;9716;53.114;18.040;2023-08-17T15:43:07;27.70;97.90
19168;DHT22;9716;53.114;18.040;2023-08-17T15:45:35;27.80;98.00